Ola, Arkansas
Current Conditions -  °F | °C
As of 9:33 AM on Monday 22 Dec 2014 (Local Time) from KRUE Reporting Station
Haze Haze  
Wind Chill: 49°   Ceiling: 1100
Heat Index: 49°   Visibility: 2mi
Dew Point: 47°   Wind: 3mph
Humidity: 93%   Direction: NA
Pressure: 29.68"   Gusts: NA
Location:  35.03°N, 93.22°W
Report Text: KRUE 221533Z AUTO VRB03KT 2SM BR FEW005 OVC011 09/08 A2968 RMK AO2 T00940083
Loading
Personal Weather Stations






























Interactive Weather Map New forecast layout! Learn more

10-Day Weather Forecast

Advertisements
Track Severe Weather on mobile